Terminal Aerodrome Forecast
Issued by NWS

Home | Current Version | Previous Version | Text Only | Print | Product List | Glossary On
Versions: 1 2 3 4 5 6 7 8 9 10 11 12 13 14
000
FTUS43 KGRB 251100
TAFMTW
TAF
KMTW 251121Z 2512/2612 05006KT P6SM SCT030 OVC060
     FM251500 05010KT P6SM BKN080
     FM251800 05015G22KT P6SM SCT080
     FM252300 03010KT P6SM SKC=

USA.gov is the U.S. government's official web portal to all federal, state and local government web resources and services.